createdAt,value
2018-05-02T00:00:34.856Z,3.93
2018-05-02T00:03:03.139Z,4.70
2018-05-02T00:05:31.435Z,4.70
2018-05-02T00:07:59.707Z,3.70
2018-05-02T00:10:28.025Z,3.90
2018-05-02T00:12:56.312Z,4.73
2018-05-02T00:15:24.607Z,3.90
2018-05-02T00:17:52.888Z,4.10
2018-05-02T00:20:21.188Z,4.00
2018-05-02T00:22:50.364Z,3.73
2018-05-02T00:25:19.444Z,4.07
2018-05-02T00:27:47.719Z,4.00
2018-05-02T00:30:15.996Z,4.43
2018-05-02T00:32:44.284Z,4.07
2018-05-02T00:35:12.555Z,4.37
2018-05-02T00:37:40.855Z,4.10
2018-05-02T00:40:09.146Z,4.03
2018-05-02T00:42:37.462Z,3.83
2018-05-02T00:45:05.740Z,3.93
2018-05-02T00:47:34.042Z,4.20
2018-05-02T00:50:02.317Z,4.20
2018-05-02T00:52:30.621Z,4.30
2018-05-02T00:54:58.908Z,3.70
2018-05-02T00:57:27.973Z,4.20
2018-05-02T00:59:56.248Z,4.40
2018-05-02T01:02:24.549Z,4.23
2018-05-02T01:04:52.832Z,4.80
2018-05-02T01:07:21.097Z,4.47
2018-05-02T01:09:49.409Z,4.10
2018-05-02T01:12:17.701Z,4.40
2018-05-02T01:14:45.996Z,4.20
2018-05-02T01:17:14.277Z,4.00
2018-05-02T01:19:42.637Z,4.00
2018-05-02T01:22:10.872Z,4.20
2018-05-02T01:24:39.939Z,4.13
2018-05-02T01:27:08.224Z,4.37
2018-05-02T01:29:36.528Z,4.03
2018-05-02T01:32:04.812Z,4.07
2018-05-02T01:34:33.117Z,4.30
2018-05-02T01:37:01.416Z,4.10
2018-05-02T01:39:30.481Z,4.30
2018-05-02T01:41:58.765Z,4.40
2018-05-02T01:44:27.070Z,4.53
2018-05-02T01:46:55.345Z,4.90
2018-05-02T01:49:24.560Z,4.57
2018-05-02T01:51:52.844Z,4.70
2018-05-02T01:54:27.124Z,4.90
2018-05-02T01:56:55.409Z,4.60
2018-05-02T01:59:23.732Z,4.97
2018-05-02T02:01:52.780Z,3.83
2018-05-02T02:04:21.833Z,4.63
2018-05-02T02:06:50.132Z,4.47
2018-05-02T02:09:18.417Z,4.50
2018-05-02T02:11:46.724Z,4.30
2018-05-02T02:14:15.021Z,5.00
2018-05-02T02:16:43.322Z,4.00
2018-05-02T02:19:11.597Z,4.23
2018-05-02T02:21:39.896Z,4.10
2018-05-02T02:24:08.183Z,3.80
2018-05-02T02:26:36.524Z,3.40
2018-05-02T02:29:04.793Z,4.80
2018-05-02T02:31:33.098Z,4.10
2018-05-02T02:34:01.387Z,4.60
2018-05-02T02:36:29.695Z,4.47
2018-05-02T02:38:57.974Z,3.97
2018-05-02T02:41:26.288Z,3.50
2018-05-02T02:43:54.577Z,3.77
2018-05-02T02:46:22.859Z,3.30
2018-05-02T02:48:51.160Z,4.20
2018-05-02T02:51:19.432Z,3.53
2018-05-02T02:53:47.725Z,3.70
2018-05-02T02:56:16.000Z,4.53
2018-05-02T02:58:44.308Z,3.77
2018-05-02T03:01:12.588Z,4.10
2018-05-02T03:03:40.890Z,4.57
2018-05-02T03:06:09.160Z,4.27
2018-05-02T03:08:37.456Z,4.47
2018-05-02T03:11:06.505Z,4.10
2018-05-02T03:13:34.804Z,4.00
2018-05-02T03:16:03.089Z,4.30
2018-05-02T03:18:31.404Z,3.93
2018-05-02T03:20:59.672Z,3.93
2018-05-02T03:23:28.716Z,4.00
2018-05-02T03:25:57.012Z,5.17
2018-05-02T03:28:25.299Z,4.27
2018-05-02T03:30:53.600Z,3.83
2018-05-02T03:33:21.872Z,4.17
2018-05-02T03:35:50.172Z,3.80
2018-05-02T03:38:18.460Z,4.27
2018-05-02T03:40:46.753Z,4.30
2018-05-02T03:43:15.036Z,4.60
2018-05-02T03:45:43.342Z,4.00
2018-05-02T03:48:11.616Z,4.57
2018-05-02T03:50:39.904Z,4.97
2018-05-02T03:53:08.192Z,5.10
2018-05-02T03:55:36.492Z,4.87
2018-05-02T03:58:04.772Z,4.53
2018-05-02T04:00:44.828Z,5.20
2018-05-02T04:03:25.447Z,5.10
2018-05-02T04:08:54.403Z,4.83
2018-05-02T04:11:22.710Z,4.87
2018-05-02T04:13:51.011Z,5.10
2018-05-02T04:16:20.332Z,4.97
2018-05-02T04:18:49.429Z,5.00
2018-05-02T04:21:18.542Z,4.90
2018-05-02T04:23:47.607Z,5.33
2018-05-02T04:26:15.929Z,5.10
2018-05-02T04:28:44.408Z,5.30
2018-05-02T04:31:13.503Z,4.70
2018-05-02T04:33:42.589Z,4.83
2018-05-02T04:36:10.943Z,5.50
2018-05-02T04:38:39.254Z,4.93
2018-05-02T04:41:08.378Z,5.50
2018-05-02T04:43:37.459Z,5.27
2018-05-02T04:46:05.778Z,5.07
2018-05-02T04:48:34.130Z,5.33
2018-05-02T04:51:02.475Z,4.97
2018-05-02T04:53:30.823Z,5.43
2018-05-02T04:55:59.215Z,4.90
2018-05-02T04:58:27.566Z,5.70
2018-05-02T05:00:55.866Z,6.00
2018-05-02T05:03:24.213Z,6.30
2018-05-02T05:05:52.502Z,5.53
2018-05-02T05:08:20.833Z,5.80
2018-05-02T05:10:49.896Z,6.87
2018-05-02T05:13:18.225Z,5.80
2018-05-02T05:15:47.316Z,6.10
2018-05-02T05:18:16.395Z,6.50
2018-05-02T05:20:44.735Z,6.90
2018-05-02T05:23:14.257Z,6.10
2018-05-02T05:25:42.589Z,5.80
2018-05-02T05:28:12.134Z,6.40
2018-05-02T05:30:40.465Z,6.70
2018-05-02T05:33:08.783Z,6.30
2018-05-02T05:35:37.125Z,6.20
2018-05-02T05:38:06.211Z,5.33
2018-05-02T05:40:35.340Z,6.23
2018-05-02T05:43:03.657Z,6.23
2018-05-02T05:45:31.976Z,6.03
2018-05-02T05:48:01.054Z,5.87
2018-05-02T05:50:29.383Z,6.00
2018-05-02T05:52:57.857Z,6.40
2018-05-02T05:55:26.177Z,6.97
2018-05-02T05:57:54.511Z,5.43
2018-05-02T06:00:22.811Z,6.60
2018-05-02T06:02:51.131Z,6.77
2018-05-02T06:05:19.437Z,6.40
2018-05-02T06:07:48.525Z,6.13
2018-05-02T06:10:16.848Z,7.30
2018-05-02T06:12:47.123Z,6.63
2018-05-02T06:15:15.455Z,7.83
2018-05-02T06:17:43.786Z,7.50
2018-05-02T06:20:12.870Z,6.73
2018-05-02T06:22:41.210Z,7.10
2018-05-02T06:25:09.532Z,7.00
2018-05-02T06:27:37.889Z,7.60
2018-05-02T06:30:06.201Z,6.87
2018-05-02T06:32:34.532Z,6.53
2018-05-02T06:35:02.836Z,6.20
2018-05-02T06:37:31.184Z,6.50
2018-05-02T06:40:02.559Z,6.23
2018-05-02T06:42:30.900Z,6.60
2018-05-02T06:44:59.202Z,7.00
2018-05-02T06:47:27.511Z,7.57
2018-05-02T06:49:55.835Z,6.70
2018-05-02T06:52:24.156Z,5.93
2018-05-02T06:54:52.491Z,5.50
2018-05-02T06:57:27.877Z,7.10
2018-05-02T06:59:56.221Z,6.27
2018-05-02T07:02:24.525Z,5.20
2018-05-02T07:04:52.859Z,6.27
2018-05-02T07:07:21.922Z,5.30
2018-05-02T07:09:50.239Z,6.50
2018-05-02T07:12:18.563Z,6.30
2018-05-02T07:14:46.885Z,7.77
2018-05-02T07:17:15.957Z,5.77
2018-05-02T07:19:44.288Z,6.20
2018-05-02T07:22:12.606Z,6.03
2018-05-02T07:24:40.928Z,6.63
2018-05-02T07:27:09.997Z,6.10
2018-05-02T07:29:38.336Z,5.80
2018-05-02T07:32:06.649Z,6.57
2018-05-02T07:34:35.015Z,6.27
2018-05-02T07:37:03.316Z,7.33
2018-05-02T07:39:31.624Z,6.50
2018-05-02T07:42:00.717Z,5.90
2018-05-02T07:44:29.813Z,6.50
2018-05-02T07:46:59.093Z,6.10
2018-05-02T07:49:27.394Z,6.40
2018-05-02T07:51:55.729Z,6.80
2018-05-02T07:54:24.049Z,7.70
2018-05-02T07:56:53.150Z,4.90
2018-05-02T07:59:22.230Z,5.87
2018-05-02T08:01:50.579Z,5.70
2018-05-02T08:04:18.914Z,5.00
2018-05-02T08:06:47.265Z,5.43
2018-05-02T08:09:15.591Z,5.07
2018-05-02T08:11:43.918Z,4.87
2018-05-02T08:14:12.220Z,4.17
2018-05-02T08:16:40.541Z,4.40
2018-05-02T08:19:08.848Z,3.33
2018-05-02T08:21:37.290Z,3.23
2018-05-02T08:24:05.600Z,2.57
2018-05-02T08:26:33.980Z,2.13
2018-05-02T08:29:02.290Z,2.80
2018-05-02T08:31:30.609Z,2.90
2018-05-02T08:33:58.950Z,2.77
2018-05-02T08:36:27.263Z,2.50
2018-05-02T08:38:55.736Z,2.27
2018-05-02T08:41:24.094Z,2.80
2018-05-02T08:43:53.396Z,2.50
2018-05-02T08:46:22.513Z,2.40
2018-05-02T08:48:50.851Z,2.77
2018-05-02T08:51:19.169Z,2.73
2018-05-02T08:53:47.497Z,2.20
2018-05-02T08:56:15.802Z,3.10
2018-05-02T08:58:44.902Z,2.70
2018-05-02T09:01:13.286Z,2.33
2018-05-02T09:03:41.662Z,2.00
2018-05-02T09:06:09.966Z,2.90
2018-05-02T09:08:38.286Z,2.33
2018-05-02T09:11:06.606Z,2.90
2018-05-02T09:13:35.717Z,2.43
2018-05-02T09:16:04.794Z,2.70
2018-05-02T09:18:33.880Z,2.93
2018-05-02T09:21:02.233Z,2.20
2018-05-02T09:23:30.537Z,2.30
2018-05-02T09:25:58.883Z,2.90
2018-05-02T09:28:28.099Z,2.80
2018-05-02T09:30:56.414Z,2.60
2018-05-02T09:33:24.874Z,1.87
2018-05-02T09:35:53.218Z,2.00
2018-05-02T09:38:21.548Z,2.00
2018-05-02T09:40:50.655Z,1.90
2018-05-02T09:43:18.958Z,2.20
2018-05-02T09:45:47.294Z,2.17
2018-05-02T09:48:15.601Z,2.03
2018-05-02T09:50:44.685Z,1.40
2018-05-02T09:53:13.136Z,2.40
2018-05-02T09:55:41.477Z,1.67
2018-05-02T09:58:09.935Z,2.47
2018-05-02T10:00:39.022Z,1.83
2018-05-02T10:03:07.353Z,2.77
2018-05-02T10:05:35.689Z,2.10
2018-05-02T10:08:04.151Z,2.00
2018-05-02T10:10:32.510Z,2.17
2018-05-02T10:13:00.905Z,2.23
2018-05-02T10:15:29.355Z,2.10
2018-05-02T10:17:57.770Z,2.17
2018-05-02T10:20:26.207Z,1.90
2018-05-02T10:22:54.611Z,2.07
2018-05-02T10:25:23.003Z,2.57
2018-05-02T10:27:52.534Z,2.33
2018-05-02T10:30:21.005Z,2.20
2018-05-02T10:32:49.391Z,1.93
2018-05-02T10:35:18.067Z,1.77
2018-05-02T10:37:46.429Z,2.07
2018-05-02T10:40:15.792Z,2.00
2018-05-02T10:42:45.208Z,2.20
2018-05-02T10:45:13.691Z,1.70
2018-05-02T10:47:42.044Z,2.20
2018-05-02T10:50:10.544Z,2.07
2018-05-02T10:52:38.898Z,2.20
2018-05-02T10:55:07.302Z,1.77
2018-05-02T10:57:35.786Z,1.43
2018-05-02T11:00:04.092Z,1.30
2018-05-02T11:02:32.398Z,1.50
2018-05-02T11:05:00.990Z,1.30
2018-05-02T11:07:29.421Z,1.03
2018-05-02T11:09:57.947Z,1.60
2018-05-02T11:12:26.304Z,1.20
2018-05-02T11:14:54.726Z,1.27
2018-05-02T11:17:23.002Z,0.93
2018-05-02T11:19:51.348Z,1.10
2018-05-02T11:22:19.652Z,1.03
2018-05-02T11:24:47.981Z,1.00
2018-05-02T11:27:16.278Z,1.00
2018-05-02T11:29:44.618Z,1.13
2018-05-02T11:32:12.966Z,0.83
2018-05-02T11:34:42.419Z,1.03
2018-05-02T11:37:10.723Z,0.90
2018-05-02T11:39:39.070Z,1.00
2018-05-02T11:42:08.147Z,0.90
2018-05-02T11:44:36.486Z,1.27
2018-05-02T11:47:04.854Z,1.03
2018-05-02T11:49:33.169Z,0.90
2018-05-02T11:52:01.513Z,1.10
2018-05-02T11:54:29.813Z,1.07
2018-05-02T11:56:58.270Z,1.10
2018-05-02T11:59:26.601Z,1.10
2018-05-02T12:01:55.738Z,1.10
2018-05-02T12:04:24.821Z,1.07
2018-05-02T12:06:53.950Z,1.10
2018-05-02T12:09:22.263Z,1.40
2018-05-02T12:11:51.369Z,1.20
2018-05-02T12:14:19.700Z,1.77
2018-05-02T12:16:48.034Z,1.40
2018-05-02T12:19:16.357Z,1.20
2018-05-02T12:21:45.513Z,1.13
2018-05-02T12:24:13.872Z,1.20
2018-05-02T12:26:42.209Z,1.20
2018-05-02T12:29:10.519Z,1.37
2018-05-02T12:31:38.847Z,1.50
2018-05-02T12:34:07.156Z,1.30
2018-05-02T12:36:36.298Z,1.20
2018-05-02T12:39:05.389Z,0.90
2018-05-02T12:41:33.701Z,0.97
2018-05-02T12:44:02.058Z,1.10
2018-05-02T12:46:30.377Z,0.80
2018-05-02T12:48:58.719Z,0.80
2018-05-02T12:51:27.816Z,1.00
2018-05-02T12:53:56.146Z,1.10
2018-05-02T12:56:24.466Z,1.43
2018-05-02T12:58:52.800Z,0.80
2018-05-02T13:01:21.125Z,1.00
2018-05-02T13:03:49.445Z,1.00
2018-05-02T13:06:17.759Z,1.00
2018-05-02T13:08:46.161Z,0.80
2018-05-02T13:11:14.471Z,1.10
2018-05-02T13:13:42.806Z,0.90
2018-05-02T13:16:11.193Z,1.00
2018-05-02T13:18:39.515Z,1.13
2018-05-02T13:21:08.600Z,1.37
2018-05-02T13:23:36.916Z,1.20
2018-05-02T13:26:05.251Z,0.80
2018-05-02T13:28:33.615Z,0.80
2018-05-02T13:31:01.955Z,1.03
2018-05-02T13:33:31.084Z,1.10
2018-05-02T13:35:59.416Z,0.90
2018-05-02T13:38:27.722Z,0.97
2018-05-02T13:40:56.066Z,0.67
2018-05-02T13:43:24.384Z,0.80
2018-05-02T13:45:52.725Z,1.00
2018-05-02T13:48:21.051Z,0.70
2018-05-02T13:50:49.394Z,0.90
2018-05-02T13:53:17.719Z,1.20
2018-05-02T13:55:46.059Z,0.90
2018-05-02T13:58:14.360Z,0.90
2018-05-02T14:00:43.454Z,0.90
2018-05-02T14:03:12.530Z,0.70
2018-05-02T14:05:40.875Z,0.90
2018-05-02T14:08:09.200Z,0.70
2018-05-02T14:10:37.536Z,0.70
2018-05-02T14:13:05.860Z,1.07
2018-05-02T14:15:34.187Z,0.80
2018-05-02T14:18:02.531Z,0.73
2018-05-02T14:20:30.840Z,0.80
2018-05-02T14:22:59.275Z,0.80
2018-05-02T14:25:27.532Z,0.70
2018-05-02T14:27:55.868Z,0.90
2018-05-02T14:30:24.192Z,1.00
2018-05-02T14:32:52.559Z,0.80
2018-05-02T14:35:21.665Z,0.90
2018-05-02T14:37:50.856Z,0.70
2018-05-02T14:40:19.219Z,0.73
2018-05-02T14:42:48.302Z,0.70
2018-05-02T14:45:16.710Z,1.00
2018-05-02T14:47:44.976Z,1.07
2018-05-02T14:50:14.076Z,0.90
2018-05-02T14:52:43.148Z,0.90
2018-05-02T14:55:11.475Z,0.90
2018-05-02T14:57:39.803Z,0.80
2018-05-02T15:00:08.158Z,0.70
2018-05-02T15:02:36.475Z,0.80
2018-05-02T15:05:04.813Z,1.10
2018-05-02T15:07:33.134Z,1.20
2018-05-02T15:10:02.588Z,0.87
2018-05-02T15:12:30.994Z,0.90
2018-05-02T15:14:59.328Z,1.20
2018-05-02T15:17:28.424Z,1.60
2018-05-02T15:19:57.527Z,1.60
2018-05-02T15:22:26.619Z,0.90
2018-05-02T15:24:55.727Z,1.00
2018-05-02T15:27:24.816Z,1.03
2018-05-02T15:29:53.142Z,0.97
2018-05-02T15:32:21.489Z,1.10
2018-05-02T15:34:50.604Z,1.07
2018-05-02T15:37:18.945Z,0.97
2018-05-02T15:39:47.303Z,1.17
2018-05-02T15:42:15.635Z,0.90
2018-05-02T15:44:43.967Z,1.00
2018-05-02T15:47:12.307Z,0.90
2018-05-02T15:49:40.619Z,0.90
2018-05-02T15:52:08.965Z,0.87
2018-05-02T15:54:38.123Z,0.80
2018-05-02T15:57:06.456Z,0.90
2018-05-02T15:59:36.738Z,0.70
2018-05-02T16:02:05.105Z,0.70
2018-05-02T16:04:34.282Z,1.00
2018-05-02T16:07:02.633Z,0.80
2018-05-02T16:09:31.720Z,0.80
2018-05-02T16:12:00.832Z,0.80
2018-05-02T16:14:29.902Z,0.83
2018-05-02T16:16:58.237Z,0.80
2018-05-02T16:19:26.553Z,0.73
2018-05-02T16:21:54.866Z,0.63
2018-05-02T16:24:23.970Z,1.00
2018-05-02T16:26:52.929Z,0.90
2018-05-02T16:29:21.279Z,1.10
2018-05-02T16:31:49.600Z,0.80
2018-05-02T16:34:17.934Z,1.00
2018-05-02T16:36:46.236Z,1.30
2018-05-02T16:39:14.581Z,1.20
2018-05-02T16:41:43.653Z,0.80
2018-05-02T16:44:11.985Z,0.80
2018-05-02T16:46:41.053Z,1.10
2018-05-02T16:49:09.406Z,0.90
2018-05-02T16:51:37.729Z,0.90
2018-05-02T16:54:06.077Z,0.90
2018-05-02T16:56:34.409Z,0.90
2018-05-02T16:59:03.517Z,0.83
2018-05-02T17:01:31.857Z,0.90
2018-05-02T17:04:00.960Z,0.80
2018-05-02T17:06:29.272Z,0.90
2018-05-02T17:08:57.632Z,1.00
2018-05-02T17:11:25.948Z,0.77
2018-05-02T17:13:54.285Z,0.80
2018-05-02T17:16:22.622Z,0.70
2018-05-02T17:18:50.971Z,1.37
2018-05-02T17:21:19.477Z,0.90
2018-05-02T17:23:48.182Z,0.70
2018-05-02T17:26:16.558Z,0.97
2018-05-02T17:28:44.868Z,0.90
2018-05-02T17:31:13.961Z,0.80
2018-05-02T17:33:42.269Z,1.37
2018-05-02T17:36:10.632Z,1.10
2018-05-02T17:38:39.731Z,1.00
2018-05-02T17:41:08.827Z,1.10
2018-05-02T17:43:37.925Z,1.40
2018-05-02T17:46:06.253Z,1.00
2018-05-02T17:48:34.590Z,3.30
2018-05-02T17:51:03.690Z,2.50
2018-05-02T17:53:32.057Z,7.10
2018-05-02T17:56:01.054Z,1.70
2018-05-02T17:58:30.159Z,9.10
2018-05-02T18:01:00.502Z,2.27
2018-05-02T18:03:29.583Z,1.47
2018-05-02T18:05:57.914Z,1.30
2018-05-02T18:08:26.233Z,2.40
2018-05-02T18:10:56.590Z,1.20
2018-05-02T18:13:26.687Z,1.13
2018-05-02T18:15:55.035Z,1.20
2018-05-02T18:18:23.355Z,1.00
2018-05-02T18:20:51.712Z,1.67
2018-05-02T18:23:20.051Z,1.60
2018-05-02T18:25:49.121Z,1.43
2018-05-02T18:28:17.459Z,1.13
2018-05-02T18:30:45.776Z,1.43
2018-05-02T18:33:14.102Z,0.90
2018-05-02T18:35:42.427Z,1.10
2018-05-02T18:38:10.751Z,1.40
2018-05-02T18:40:39.074Z,1.30
2018-05-02T18:43:07.412Z,1.17
2018-05-02T18:45:36.531Z,1.33
2018-05-02T18:48:06.039Z,1.20
2018-05-02T18:50:35.289Z,1.00
2018-05-02T18:53:03.632Z,1.50
2018-05-02T18:55:31.940Z,1.67
2018-05-02T18:58:00.267Z,1.40
2018-05-02T19:00:28.604Z,1.40
2018-05-02T19:02:56.908Z,1.37
2018-05-02T19:05:25.991Z,1.60
2018-05-02T19:07:54.277Z,1.70
2018-05-02T19:10:23.370Z,1.73
2018-05-02T19:12:52.446Z,1.63
2018-05-02T19:15:20.763Z,1.40
2018-05-02T19:17:54.775Z,1.93
2018-05-02T19:20:28.735Z,1.90
2018-05-02T19:22:57.031Z,1.37
2018-05-02T19:25:31.047Z,1.40
2018-05-02T19:27:59.349Z,1.80
2018-05-02T19:30:28.442Z,1.30
2018-05-02T19:33:03.243Z,1.50
2018-05-02T19:35:31.640Z,1.40
2018-05-02T19:37:59.894Z,1.50
2018-05-02T19:40:33.983Z,1.60
2018-05-02T19:43:07.858Z,1.47
2018-05-02T19:45:36.954Z,1.63
2018-05-02T19:48:06.017Z,1.67
2018-05-02T19:50:34.378Z,1.73
2018-05-02T19:53:02.679Z,1.73
2018-05-02T19:55:31.002Z,1.60
2018-05-02T19:57:59.306Z,1.50
2018-05-02T20:00:33.223Z,1.60
2018-05-02T20:03:02.288Z,1.70
2018-05-02T20:05:31.371Z,1.50
2018-05-02T20:08:00.448Z,1.57
2018-05-02T20:10:34.427Z,1.63
2018-05-02T20:13:08.347Z,1.30
2018-05-02T20:15:36.652Z,2.10
2018-05-02T20:18:04.971Z,2.07
2018-05-02T20:20:33.270Z,1.77
2018-05-02T20:23:03.296Z,1.57
2018-05-02T20:25:31.593Z,1.80
2018-05-02T20:27:59.924Z,1.70
2018-05-02T20:30:28.221Z,1.80
2018-05-02T20:32:56.539Z,2.13
2018-05-02T20:35:24.907Z,1.93
2018-05-02T20:37:53.235Z,1.97
2018-05-02T20:40:21.540Z,1.83
2018-05-02T20:42:49.863Z,1.90
2018-05-02T20:45:18.222Z,2.07
2018-05-02T20:47:46.600Z,1.80
2018-05-02T20:50:15.639Z,2.50
2018-05-02T20:52:43.963Z,2.40
2018-05-02T20:55:12.521Z,2.13
2018-05-02T20:57:40.835Z,2.00
2018-05-02T21:00:10.075Z,1.93
2018-05-02T21:02:38.428Z,2.83
2018-05-02T21:05:06.730Z,2.47
2018-05-02T21:07:35.031Z,2.63
2018-05-02T21:10:03.353Z,2.80
2018-05-02T21:12:31.689Z,2.20
2018-05-02T21:15:00.031Z,2.57
2018-05-02T21:17:29.144Z,2.60
2018-05-02T21:19:58.206Z,2.10
2018-05-02T21:22:27.284Z,2.10
2018-05-02T21:24:55.603Z,2.40
2018-05-02T21:27:24.688Z,2.53
2018-05-02T21:29:53.007Z,2.17
2018-05-02T21:32:21.314Z,2.37
2018-05-02T21:34:49.674Z,2.90
2018-05-02T21:37:17.981Z,2.97
2018-05-02T21:39:46.326Z,2.90
2018-05-02T21:42:14.633Z,2.50
2018-05-02T21:44:42.939Z,3.13
2018-05-02T21:47:12.031Z,2.97
2018-05-02T21:49:40.385Z,2.60
2018-05-02T21:52:08.702Z,2.97
2018-05-02T21:54:37.039Z,3.37
2018-05-02T21:57:05.390Z,2.70
2018-05-02T21:59:33.686Z,2.47
2018-05-02T22:02:02.007Z,3.10
2018-05-02T22:04:31.086Z,3.40
2018-05-02T22:06:59.417Z,3.53
2018-05-02T22:09:27.710Z,2.60
2018-05-02T22:11:56.036Z,2.60
2018-05-02T22:14:25.102Z,3.20
2018-05-02T22:16:53.485Z,2.60
2018-05-02T22:19:21.730Z,2.83
2018-05-02T22:21:50.080Z,2.83
2018-05-02T22:24:18.383Z,3.00
2018-05-02T22:26:46.785Z,2.83
2018-05-02T22:29:15.098Z,3.07
2018-05-02T22:31:44.175Z,3.17
2018-05-02T22:34:12.503Z,3.20
2018-05-02T22:36:40.850Z,2.97
2018-05-02T22:39:09.166Z,3.13
2018-05-02T22:41:37.474Z,2.87
2018-05-02T22:44:05.795Z,3.27
2018-05-02T22:46:34.855Z,4.67
2018-05-02T22:49:03.175Z,3.10
2018-05-02T22:51:32.234Z,3.33
2018-05-02T22:54:00.558Z,3.47
2018-05-02T22:56:29.631Z,3.63
2018-05-02T22:58:58.725Z,2.80
2018-05-02T23:01:27.019Z,2.70
2018-05-02T23:03:55.346Z,3.33
2018-05-02T23:06:23.648Z,3.17
2018-05-02T23:08:51.951Z,3.33
2018-05-02T23:11:21.039Z,3.10
2018-05-02T23:13:49.348Z,2.70
2018-05-02T23:16:17.682Z,3.00
2018-05-02T23:18:45.980Z,3.13
2018-05-02T23:21:15.066Z,3.70
2018-05-02T23:23:44.157Z,3.40
2018-05-02T23:26:12.494Z,3.20
2018-05-02T23:28:40.803Z,3.17
2018-05-02T23:31:09.123Z,3.40
2018-05-02T23:33:38.233Z,3.40
2018-05-02T23:36:06.551Z,3.50
2018-05-02T23:38:34.855Z,3.20
2018-05-02T23:41:03.965Z,3.87
2018-05-02T23:43:32.265Z,3.40
2018-05-02T23:46:00.590Z,3.13
2018-05-02T23:48:28.878Z,3.37
2018-05-02T23:50:57.211Z,3.27
2018-05-02T23:53:25.524Z,3.87
2018-05-02T23:55:53.850Z,3.67
2018-05-02T23:58:22.157Z,3.77
